sensor_id;sensor_type;location;lat;lon;timestamp;P1;durP1;ratioP1;P2;durP2;ratioP2
32319;SDS011;19080;51.750;5.888;2023-02-08T00:00:04;22.77;;;13.00;;
32319;SDS011;19080;51.750;5.888;2023-02-08T00:02:32;19.38;;;12.95;;
32319;SDS011;19080;51.750;5.888;2023-02-08T00:04:59;22.08;;;13.13;;
32319;SDS011;19080;51.750;5.888;2023-02-08T00:07:26;20.35;;;12.60;;
32319;SDS011;19080;51.750;5.888;2023-02-08T00:09:52;27.30;;;12.68;;
32319;SDS011;19080;51.750;5.888;2023-02-08T00:12:19;21.48;;;12.63;;
32319;SDS011;19080;51.750;5.888;2023-02-08T00:14:46;21.02;;;13.02;;
32319;SDS011;19080;51.750;5.888;2023-02-08T00:17:12;20.63;;;12.50;;
32319;SDS011;19080;51.750;5.888;2023-02-08T00:19:39;17.20;;;11.43;;
32319;SDS011;19080;51.750;5.888;2023-02-08T00:22:06;19.40;;;11.63;;
32319;SDS011;19080;51.750;5.888;2023-02-08T00:24:32;21.63;;;12.35;;
32319;SDS011;19080;51.750;5.888;2023-02-08T00:26:59;20.27;;;12.18;;
32319;SDS011;19080;51.750;5.888;2023-02-08T00:29:25;21.00;;;12.13;;
32319;SDS011;19080;51.750;5.888;2023-02-08T00:31:52;20.95;;;12.15;;
32319;SDS011;19080;51.750;5.888;2023-02-08T00:34:19;16.55;;;10.63;;
32319;SDS011;19080;51.750;5.888;2023-02-08T00:36:45;20.30;;;11.55;;
32319;SDS011;19080;51.750;5.888;2023-02-08T00:39:12;18.17;;;10.55;;
32319;SDS011;19080;51.750;5.888;2023-02-08T00:41:39;16.00;;;10.30;;
32319;SDS011;19080;51.750;5.888;2023-02-08T00:44:06;15.65;;;10.02;;
32319;SDS011;19080;51.750;5.888;2023-02-08T00:46:33;14.38;;;10.40;;
32319;SDS011;19080;51.750;5.888;2023-02-08T00:49:00;15.95;;;10.50;;
32319;SDS011;19080;51.750;5.888;2023-02-08T00:51:27;19.92;;;11.00;;
32319;SDS011;19080;51.750;5.888;2023-02-08T00:53:54;17.88;;;10.65;;
32319;SDS011;19080;51.750;5.888;2023-02-08T00:56:21;18.65;;;9.05;;
32319;SDS011;19080;51.750;5.888;2023-02-08T00:58:47;18.02;;;9.60;;
32319;SDS011;19080;51.750;5.888;2023-02-08T01:01:15;13.52;;;8.60;;
32319;SDS011;19080;51.750;5.888;2023-02-08T01:03:43;14.90;;;8.73;;
32319;SDS011;19080;51.750;5.888;2023-02-08T01:06:11;15.73;;;9.40;;
32319;SDS011;19080;51.750;5.888;2023-02-08T01:08:40;15.43;;;9.40;;
32319;SDS011;19080;51.750;5.888;2023-02-08T01:11:08;15.38;;;9.77;;
32319;SDS011;19080;51.750;5.888;2023-02-08T01:13:36;13.43;;;8.52;;
32319;SDS011;19080;51.750;5.888;2023-02-08T01:16:14;30.67;;;9.45;;
32319;SDS011;19080;51.750;5.888;2023-02-08T01:18:42;13.93;;;8.98;;
32319;SDS011;19080;51.750;5.888;2023-02-08T01:21:15;16.33;;;9.18;;
32319;SDS011;19080;51.750;5.888;2023-02-08T01:23:44;15.68;;;8.63;;
32319;SDS011;19080;51.750;5.888;2023-02-08T01:26:12;14.63;;;9.05;;
32319;SDS011;19080;51.750;5.888;2023-02-08T01:28:40;15.82;;;9.73;;
32319;SDS011;19080;51.750;5.888;2023-02-08T01:31:08;16.05;;;8.85;;
32319;SDS011;19080;51.750;5.888;2023-02-08T01:33:37;14.02;;;8.38;;
32319;SDS011;19080;51.750;5.888;2023-02-08T01:36:04;19.67;;;9.20;;
32319;SDS011;19080;51.750;5.888;2023-02-08T01:38:33;14.10;;;8.57;;
32319;SDS011;19080;51.750;5.888;2023-02-08T01:41:01;15.88;;;10.27;;
32319;SDS011;19080;51.750;5.888;2023-02-08T01:43:30;13.35;;;8.75;;
32319;SDS011;19080;51.750;5.888;2023-02-08T01:45:58;11.80;;;8.35;;
32319;SDS011;19080;51.750;5.888;2023-02-08T01:48:26;15.10;;;9.15;;
32319;SDS011;19080;51.750;5.888;2023-02-08T01:50:58;15.10;;;8.95;;
32319;SDS011;19080;51.750;5.888;2023-02-08T01:53:29;14.27;;;8.77;;
32319;SDS011;19080;51.750;5.888;2023-02-08T01:55:59;14.35;;;8.52;;
32319;SDS011;19080;51.750;5.888;2023-02-08T01:58:29;13.77;;;9.38;;
32319;SDS011;19080;51.750;5.888;2023-02-08T02:00:59;16.55;;;9.70;;
32319;SDS011;19080;51.750;5.888;2023-02-08T02:03:27;12.50;;;8.32;;
32319;SDS011;19080;51.750;5.888;2023-02-08T02:05:56;15.13;;;9.85;;
32319;SDS011;19080;51.750;5.888;2023-02-08T02:08:29;15.95;;;8.55;;
32319;SDS011;19080;51.750;5.888;2023-02-08T02:10:56;15.27;;;8.85;;
32319;SDS011;19080;51.750;5.888;2023-02-08T02:13:24;13.43;;;8.85;;
32319;SDS011;19080;51.750;5.888;2023-02-08T02:15:53;15.98;;;9.50;;
32319;SDS011;19080;51.750;5.888;2023-02-08T02:18:26;15.63;;;9.10;;
32319;SDS011;19080;51.750;5.888;2023-02-08T02:29:38;15.45;;;8.57;;
32319;SDS011;19080;51.750;5.888;2023-02-08T02:32:26;16.50;;;8.95;;
32319;SDS011;19080;51.750;5.888;2023-02-08T02:43:09;14.30;;;9.25;;
32319;SDS011;19080;51.750;5.888;2023-02-08T02:46:04;16.00;;;8.45;;
32319;SDS011;19080;51.750;5.888;2023-02-08T02:49:04;13.43;;;8.40;;
32319;SDS011;19080;51.750;5.888;2023-02-08T02:54:20;16.58;;;9.65;;
32319;SDS011;19080;51.750;5.888;2023-02-08T02:56:55;13.23;;;8.60;;
32319;SDS011;19080;51.750;5.888;2023-02-08T02:59:27;11.82;;;8.05;;
32319;SDS011;19080;51.750;5.888;2023-02-08T03:01:57;12.85;;;8.85;;
32319;SDS011;19080;51.750;5.888;2023-02-08T03:21:55;11.57;;;7.60;;
32319;SDS011;19080;51.750;5.888;2023-02-08T03:24:38;11.63;;;8.40;;
32319;SDS011;19080;51.750;5.888;2023-02-08T03:30:38;12.50;;;8.30;;
32319;SDS011;19080;51.750;5.888;2023-02-08T03:33:26;16.17;;;9.48;;
32319;SDS011;19080;51.750;5.888;2023-02-08T03:36:07;11.18;;;7.60;;
32319;SDS011;19080;51.750;5.888;2023-02-08T03:38:42;12.18;;;8.07;;
32319;SDS011;19080;51.750;5.888;2023-02-08T03:41:14;13.38;;;8.38;;
32319;SDS011;19080;51.750;5.888;2023-02-08T03:44:06;15.00;;;8.50;;
32319;SDS011;19080;51.750;5.888;2023-02-08T03:46:39;14.30;;;8.63;;
32319;SDS011;19080;51.750;5.888;2023-02-08T03:49:14;14.10;;;8.90;;
32319;SDS011;19080;51.750;5.888;2023-02-08T03:51:45;14.57;;;8.18;;
32319;SDS011;19080;51.750;5.888;2023-02-08T03:54:14;14.10;;;8.77;;
32319;SDS011;19080;51.750;5.888;2023-02-08T03:56:46;10.90;;;7.22;;
32319;SDS011;19080;51.750;5.888;2023-02-08T03:59:20;12.02;;;8.63;;
32319;SDS011;19080;51.750;5.888;2023-02-08T04:01:58;12.93;;;7.97;;
32319;SDS011;19080;51.750;5.888;2023-02-08T04:04:28;13.63;;;8.38;;
32319;SDS011;19080;51.750;5.888;2023-02-08T04:06:59;14.95;;;9.10;;
32319;SDS011;19080;51.750;5.888;2023-02-08T04:09:26;13.05;;;8.27;;
32319;SDS011;19080;51.750;5.888;2023-02-08T04:11:52;14.30;;;8.75;;
32319;SDS011;19080;51.750;5.888;2023-02-08T04:14:19;13.23;;;7.80;;
32319;SDS011;19080;51.750;5.888;2023-02-08T04:16:45;12.45;;;8.32;;
32319;SDS011;19080;51.750;5.888;2023-02-08T04:19:12;12.18;;;8.23;;
32319;SDS011;19080;51.750;5.888;2023-02-08T04:21:38;11.35;;;7.95;;
32319;SDS011;19080;51.750;5.888;2023-02-08T04:24:05;12.50;;;7.22;;
32319;SDS011;19080;51.750;5.888;2023-02-08T04:26:32;12.65;;;8.50;;
32319;SDS011;19080;51.750;5.888;2023-02-08T04:28:59;14.93;;;9.52;;
32319;SDS011;19080;51.750;5.888;2023-02-08T04:31:25;11.68;;;7.47;;
32319;SDS011;19080;51.750;5.888;2023-02-08T04:33:52;11.63;;;7.75;;
32319;SDS011;19080;51.750;5.888;2023-02-08T04:36:19;12.15;;;7.53;;
32319;SDS011;19080;51.750;5.888;2023-02-08T04:38:45;14.25;;;8.63;;
32319;SDS011;19080;51.750;5.888;2023-02-08T04:41:12;13.77;;;8.13;;
32319;SDS011;19080;51.750;5.888;2023-02-08T04:43:39;13.68;;;8.05;;
32319;SDS011;19080;51.750;5.888;2023-02-08T04:46:06;13.63;;;8.65;;
32319;SDS011;19080;51.750;5.888;2023-02-08T04:48:32;13.98;;;8.52;;
32319;SDS011;19080;51.750;5.888;2023-02-08T04:50:59;12.02;;;7.75;;
32319;SDS011;19080;51.750;5.888;2023-02-08T04:53:25;15.85;;;7.97;;
32319;SDS011;19080;51.750;5.888;2023-02-08T04:55:52;12.65;;;8.13;;
32319;SDS011;19080;51.750;5.888;2023-02-08T04:58:19;11.60;;;7.70;;
32319;SDS011;19080;51.750;5.888;2023-02-08T05:00:46;13.90;;;8.43;;
32319;SDS011;19080;51.750;5.888;2023-02-08T05:03:12;12.80;;;7.93;;
32319;SDS011;19080;51.750;5.888;2023-02-08T05:05:40;26.23;;;8.73;;
32319;SDS011;19080;51.750;5.888;2023-02-08T05:08:07;15.32;;;7.65;;
32319;SDS011;19080;51.750;5.888;2023-02-08T05:10:33;13.13;;;8.57;;
32319;SDS011;19080;51.750;5.888;2023-02-08T05:13:00;11.30;;;7.90;;
32319;SDS011;19080;51.750;5.888;2023-02-08T05:15:26;12.23;;;8.02;;
32319;SDS011;19080;51.750;5.888;2023-02-08T05:17:53;12.38;;;8.10;;
32319;SDS011;19080;51.750;5.888;2023-02-08T05:20:20;12.90;;;8.20;;
32319;SDS011;19080;51.750;5.888;2023-02-08T05:22:47;14.82;;;9.00;;
32319;SDS011;19080;51.750;5.888;2023-02-08T05:25:13;13.48;;;8.52;;
32319;SDS011;19080;51.750;5.888;2023-02-08T05:27:40;15.18;;;9.57;;
32319;SDS011;19080;51.750;5.888;2023-02-08T05:30:07;14.13;;;9.25;;
32319;SDS011;19080;51.750;5.888;2023-02-08T05:32:34;13.13;;;8.15;;
32319;SDS011;19080;51.750;5.888;2023-02-08T05:35:00;20.42;;;8.70;;
32319;SDS011;19080;51.750;5.888;2023-02-08T05:37:27;14.45;;;8.88;;
32319;SDS011;19080;51.750;5.888;2023-02-08T05:39:53;15.15;;;8.93;;
32319;SDS011;19080;51.750;5.888;2023-02-08T05:42:20;12.27;;;8.40;;
32319;SDS011;19080;51.750;5.888;2023-02-08T05:44:47;15.55;;;8.65;;
32319;SDS011;19080;51.750;5.888;2023-02-08T05:47:13;12.48;;;8.30;;
32319;SDS011;19080;51.750;5.888;2023-02-08T05:49:40;14.88;;;8.35;;
32319;SDS011;19080;51.750;5.888;2023-02-08T05:52:07;19.23;;;8.93;;
32319;SDS011;19080;51.750;5.888;2023-02-08T05:54:33;12.68;;;8.32;;
32319;SDS011;19080;51.750;5.888;2023-02-08T05:57:00;13.30;;;8.52;;
32319;SDS011;19080;51.750;5.888;2023-02-08T05:59:27;12.77;;;7.95;;
32319;SDS011;19080;51.750;5.888;2023-02-08T06:01:54;15.77;;;8.95;;
32319;SDS011;19080;51.750;5.888;2023-02-08T06:04:20;16.83;;;9.00;;
32319;SDS011;19080;51.750;5.888;2023-02-08T06:06:47;12.80;;;8.25;;
32319;SDS011;19080;51.750;5.888;2023-02-08T06:09:13;13.30;;;9.05;;
32319;SDS011;19080;51.750;5.888;2023-02-08T06:11:40;13.00;;;8.40;;
32319;SDS011;19080;51.750;5.888;2023-02-08T06:14:07;16.00;;;8.20;;
32319;SDS011;19080;51.750;5.888;2023-02-08T06:16:33;12.60;;;8.07;;
32319;SDS011;19080;51.750;5.888;2023-02-08T06:19:00;15.00;;;8.13;;
32319;SDS011;19080;51.750;5.888;2023-02-08T06:21:26;13.43;;;8.20;;
32319;SDS011;19080;51.750;5.888;2023-02-08T06:23:53;13.48;;;8.48;;
32319;SDS011;19080;51.750;5.888;2023-02-08T06:26:20;16.77;;;8.82;;
32319;SDS011;19080;51.750;5.888;2023-02-08T06:28:47;12.95;;;8.23;;
32319;SDS011;19080;51.750;5.888;2023-02-08T06:31:14;15.63;;;9.07;;
32319;SDS011;19080;51.750;5.888;2023-02-08T06:33:40;17.42;;;9.32;;
32319;SDS011;19080;51.750;5.888;2023-02-08T06:36:07;13.60;;;9.27;;
32319;SDS011;19080;51.750;5.888;2023-02-08T06:38:34;16.50;;;9.48;;
32319;SDS011;19080;51.750;5.888;2023-02-08T06:41:01;15.57;;;9.00;;
32319;SDS011;19080;51.750;5.888;2023-02-08T06:43:27;18.90;;;9.82;;
32319;SDS011;19080;51.750;5.888;2023-02-08T06:45:54;14.63;;;8.65;;
32319;SDS011;19080;51.750;5.888;2023-02-08T06:48:20;17.38;;;8.85;;
32319;SDS011;19080;51.750;5.888;2023-02-08T06:50:47;16.75;;;9.93;;
32319;SDS011;19080;51.750;5.888;2023-02-08T06:53:14;13.15;;;9.15;;
32319;SDS011;19080;51.750;5.888;2023-02-08T06:55:40;15.82;;;9.80;;
32319;SDS011;19080;51.750;5.888;2023-02-08T06:58:07;16.08;;;9.35;;
32319;SDS011;19080;51.750;5.888;2023-02-08T07:00:33;15.48;;;9.02;;
32319;SDS011;19080;51.750;5.888;2023-02-08T07:03:00;17.85;;;9.70;;
32319;SDS011;19080;51.750;5.888;2023-02-08T07:05:27;14.27;;;9.50;;
32319;SDS011;19080;51.750;5.888;2023-02-08T07:07:53;15.95;;;10.25;;
32319;SDS011;19080;51.750;5.888;2023-02-08T07:10:20;17.55;;;9.90;;
32319;SDS011;19080;51.750;5.888;2023-02-08T07:12:47;13.48;;;9.00;;
32319;SDS011;19080;51.750;5.888;2023-02-08T07:15:13;14.93;;;9.75;;
32319;SDS011;19080;51.750;5.888;2023-02-08T07:17:40;16.20;;;9.32;;
32319;SDS011;19080;51.750;5.888;2023-02-08T07:20:07;17.50;;;9.52;;
32319;SDS011;19080;51.750;5.888;2023-02-08T07:22:34;15.18;;;9.40;;
32319;SDS011;19080;51.750;5.888;2023-02-08T07:25:00;15.32;;;10.02;;
32319;SDS011;19080;51.750;5.888;2023-02-08T07:27:27;14.85;;;8.73;;
32319;SDS011;19080;51.750;5.888;2023-02-08T07:29:54;15.82;;;9.45;;
32319;SDS011;19080;51.750;5.888;2023-02-08T07:32:20;13.55;;;9.25;;
32319;SDS011;19080;51.750;5.888;2023-02-08T07:34:47;12.93;;;8.77;;
32319;SDS011;19080;51.750;5.888;2023-02-08T07:37:14;15.20;;;9.18;;
32319;SDS011;19080;51.750;5.888;2023-02-08T07:39:40;14.95;;;9.10;;
32319;SDS011;19080;51.750;5.888;2023-02-08T07:42:08;17.83;;;9.70;;
32319;SDS011;19080;51.750;5.888;2023-02-08T07:44:46;19.17;;;9.25;;
32319;SDS011;19080;51.750;5.888;2023-02-08T07:47:12;15.48;;;9.52;;
32319;SDS011;19080;51.750;5.888;2023-02-08T07:49:39;16.08;;;9.38;;
32319;SDS011;19080;51.750;5.888;2023-02-08T07:52:05;18.20;;;9.45;;
32319;SDS011;19080;51.750;5.888;2023-02-08T07:54:32;14.30;;;9.52;;
32319;SDS011;19080;51.750;5.888;2023-02-08T07:56:59;14.20;;;9.43;;
32319;SDS011;19080;51.750;5.888;2023-02-08T07:59:28;14.13;;;9.43;;
32319;SDS011;19080;51.750;5.888;2023-02-08T08:01:55;16.75;;;9.90;;
32319;SDS011;19080;51.750;5.888;2023-02-08T08:04:22;13.18;;;8.57;;
32319;SDS011;19080;51.750;5.888;2023-02-08T08:06:48;16.13;;;9.55;;
32319;SDS011;19080;51.750;5.888;2023-02-08T08:09:16;16.90;;;9.55;;
32319;SDS011;19080;51.750;5.888;2023-02-08T08:11:43;19.27;;;9.70;;
32319;SDS011;19080;51.750;5.888;2023-02-08T08:14:09;13.82;;;9.23;;
32319;SDS011;19080;51.750;5.888;2023-02-08T08:16:36;13.80;;;9.48;;
32319;SDS011;19080;51.750;5.888;2023-02-08T08:19:03;15.52;;;8.63;;
32319;SDS011;19080;51.750;5.888;2023-02-08T08:21:29;13.88;;;9.40;;
32319;SDS011;19080;51.750;5.888;2023-02-08T08:23:56;12.57;;;9.30;;
32319;SDS011;19080;51.750;5.888;2023-02-08T08:26:22;14.25;;;9.35;;
32319;SDS011;19080;51.750;5.888;2023-02-08T08:28:49;14.55;;;9.52;;
32319;SDS011;19080;51.750;5.888;2023-02-08T08:31:16;13.80;;;9.13;;
32319;SDS011;19080;51.750;5.888;2023-02-08T08:33:45;14.75;;;8.90;;
32319;SDS011;19080;51.750;5.888;2023-02-08T08:36:12;14.20;;;9.40;;
32319;SDS011;19080;51.750;5.888;2023-02-08T08:38:39;14.93;;;9.43;;
32319;SDS011;19080;51.750;5.888;2023-02-08T08:41:10;12.15;;;9.05;;
32319;SDS011;19080;51.750;5.888;2023-02-08T08:43:39;13.68;;;9.65;;
32319;SDS011;19080;51.750;5.888;2023-02-08T08:46:06;15.18;;;9.73;;
32319;SDS011;19080;51.750;5.888;2023-02-08T08:48:34;14.65;;;10.18;;
32319;SDS011;19080;51.750;5.888;2023-02-08T08:51:01;12.35;;;9.00;;
32319;SDS011;19080;51.750;5.888;2023-02-08T08:53:28;11.18;;;8.80;;
32319;SDS011;19080;51.750;5.888;2023-02-08T08:55:54;11.52;;;8.73;;
32319;SDS011;19080;51.750;5.888;2023-02-08T08:58:21;13.23;;;8.25;;
32319;SDS011;19080;51.750;5.888;2023-02-08T09:00:48;13.18;;;9.18;;
32319;SDS011;19080;51.750;5.888;2023-02-08T09:03:15;13.80;;;9.50;;
32319;SDS011;19080;51.750;5.888;2023-02-08T09:05:42;12.38;;;8.55;;
32319;SDS011;19080;51.750;5.888;2023-02-08T09:08:08;14.70;;;9.07;;
32319;SDS011;19080;51.750;5.888;2023-02-08T09:10:35;15.07;;;9.65;;
32319;SDS011;19080;51.750;5.888;2023-02-08T09:13:01;12.70;;;9.00;;
32319;SDS011;19080;51.750;5.888;2023-02-08T09:15:28;11.93;;;8.63;;
32319;SDS011;19080;51.750;5.888;2023-02-08T09:17:55;14.63;;;10.00;;
32319;SDS011;19080;51.750;5.888;2023-02-08T09:20:22;15.48;;;9.50;;
32319;SDS011;19080;51.750;5.888;2023-02-08T09:22:49;13.70;;;9.23;;
32319;SDS011;19080;51.750;5.888;2023-02-08T09:25:16;14.63;;;9.35;;
32319;SDS011;19080;51.750;5.888;2023-02-08T09:27:42;12.60;;;9.43;;
32319;SDS011;19080;51.750;5.888;2023-02-08T09:30:09;13.15;;;9.20;;
32319;SDS011;19080;51.750;5.888;2023-02-08T09:32:36;13.20;;;9.30;;
32319;SDS011;19080;51.750;5.888;2023-02-08T09:35:06;14.50;;;8.75;;
32319;SDS011;19080;51.750;5.888;2023-02-08T09:37:33;12.70;;;8.50;;
32319;SDS011;19080;51.750;5.888;2023-02-08T09:40:00;12.98;;;8.85;;
32319;SDS011;19080;51.750;5.888;2023-02-08T09:42:34;14.02;;;9.00;;
32319;SDS011;19080;51.750;5.888;2023-02-08T09:45:49;13.88;;;8.55;;
32319;SDS011;19080;51.750;5.888;2023-02-08T09:48:25;13.70;;;7.95;;
32319;SDS011;19080;51.750;5.888;2023-02-08T09:54:17;10.67;;;7.80;;
32319;SDS011;19080;51.750;5.888;2023-02-08T09:56:48;11.68;;;8.57;;
32319;SDS011;19080;51.750;5.888;2023-02-08T09:59:18;12.98;;;7.88;;
32319;SDS011;19080;51.750;5.888;2023-02-08T10:01:48;11.35;;;7.22;;
32319;SDS011;19080;51.750;5.888;2023-02-08T10:06:57;13.13;;;8.40;;
32319;SDS011;19080;51.750;5.888;2023-02-08T10:09:24;12.35;;;8.73;;
32319;SDS011;19080;51.750;5.888;2023-02-08T10:23:18;10.32;;;7.60;;
32319;SDS011;19080;51.750;5.888;2023-02-08T10:31:57;11.10;;;7.50;;
32319;SDS011;19080;51.750;5.888;2023-02-08T10:37:16;11.10;;;7.85;;
32319;SDS011;19080;51.750;5.888;2023-02-08T10:39:45;10.25;;;7.50;;
32319;SDS011;19080;51.750;5.888;2023-02-08T10:42:15;11.43;;;7.57;;
32319;SDS011;19080;51.750;5.888;2023-02-08T10:47:53;10.65;;;8.10;;
32319;SDS011;19080;51.750;5.888;2023-02-08T10:50:24;9.48;;;7.15;;
32319;SDS011;19080;51.750;5.888;2023-02-08T10:52:59;12.27;;;7.47;;
32319;SDS011;19080;51.750;5.888;2023-02-08T10:55:26;11.77;;;8.10;;
32319;SDS011;19080;51.750;5.888;2023-02-08T10:57:54;13.63;;;8.15;;
32319;SDS011;19080;51.750;5.888;2023-02-08T11:00:29;10.45;;;7.38;;
32319;SDS011;19080;51.750;5.888;2023-02-08T11:03:00;9.93;;;7.55;;
32319;SDS011;19080;51.750;5.888;2023-02-08T11:05:38;8.80;;;7.13;;
32319;SDS011;19080;51.750;5.888;2023-02-08T11:08:10;12.98;;;7.63;;
32319;SDS011;19080;51.750;5.888;2023-02-08T11:10:44;11.23;;;7.88;;
32319;SDS011;19080;51.750;5.888;2023-02-08T11:13:21;11.25;;;7.45;;
32319;SDS011;19080;51.750;5.888;2023-02-08T11:15:55;12.15;;;7.38;;
32319;SDS011;19080;51.750;5.888;2023-02-08T11:18:26;8.80;;;6.75;;
32319;SDS011;19080;51.750;5.888;2023-02-08T11:20:58;8.30;;;6.63;;
32319;SDS011;19080;51.750;5.888;2023-02-08T11:23:31;8.38;;;7.35;;
32319;SDS011;19080;51.750;5.888;2023-02-08T11:26:16;10.60;;;6.40;;
32319;SDS011;19080;51.750;5.888;2023-02-08T11:28:57;8.68;;;6.68;;
32319;SDS011;19080;51.750;5.888;2023-02-08T11:31:24;11.55;;;7.25;;
32319;SDS011;19080;51.750;5.888;2023-02-08T11:34:07;10.45;;;7.32;;
32319;SDS011;19080;51.750;5.888;2023-02-08T11:36:36;12.45;;;6.80;;
32319;SDS011;19080;51.750;5.888;2023-02-08T11:39:23;11.82;;;6.95;;
32319;SDS011;19080;51.750;5.888;2023-02-08T11:41:54;10.43;;;6.90;;
32319;SDS011;19080;51.750;5.888;2023-02-08T11:44:34;9.10;;;7.05;;
32319;SDS011;19080;51.750;5.888;2023-02-08T11:47:03;8.23;;;6.57;;
32319;SDS011;19080;51.750;5.888;2023-02-08T11:49:38;8.00;;;6.78;;
32319;SDS011;19080;51.750;5.888;2023-02-08T11:52:18;7.57;;;6.68;;
32319;SDS011;19080;51.750;5.888;2023-02-08T11:54:46;8.65;;;6.70;;
32319;SDS011;19080;51.750;5.888;2023-02-08T11:57:29;8.20;;;6.57;;
32319;SDS011;19080;51.750;5.888;2023-02-08T12:00:17;11.05;;;6.60;;
32319;SDS011;19080;51.750;5.888;2023-02-08T12:02:54;10.57;;;6.22;;
32319;SDS011;19080;51.750;5.888;2023-02-08T12:08:38;10.57;;;6.60;;
32319;SDS011;19080;51.750;5.888;2023-02-08T12:16:47;9.00;;;6.78;;
32319;SDS011;19080;51.750;5.888;2023-02-08T12:30:18;7.47;;;4.65;;
32319;SDS011;19080;51.750;5.888;2023-02-08T12:55:47;7.88;;;5.60;;
32319;SDS011;19080;51.750;5.888;2023-02-08T13:01:22;5.78;;;4.75;;
32319;SDS011;19080;51.750;5.888;2023-02-08T13:06:42;7.80;;;5.35;;
32319;SDS011;19080;51.750;5.888;2023-02-08T13:12:03;6.22;;;4.63;;
32319;SDS011;19080;51.750;5.888;2023-02-08T13:17:18;7.57;;;5.32;;
32319;SDS011;19080;51.750;5.888;2023-02-08T13:20:06;7.97;;;5.22;;
32319;SDS011;19080;51.750;5.888;2023-02-08T13:22:48;8.75;;;5.30;;
32319;SDS011;19080;51.750;5.888;2023-02-08T13:25:26;9.23;;;5.13;;
32319;SDS011;19080;51.750;5.888;2023-02-08T13:28:03;6.72;;;5.30;;
32319;SDS011;19080;51.750;5.888;2023-02-08T13:30:32;7.88;;;5.05;;
32319;SDS011;19080;51.750;5.888;2023-02-08T13:33:15;7.05;;;5.32;;
32319;SDS011;19080;51.750;5.888;2023-02-08T13:35:49;5.93;;;4.35;;
32319;SDS011;19080;51.750;5.888;2023-02-08T13:38:28;10.10;;;5.28;;
32319;SDS011;19080;51.750;5.888;2023-02-08T13:41:17;5.72;;;4.55;;
32319;SDS011;19080;51.750;5.888;2023-02-08T13:46:22;11.50;;;5.15;;
32319;SDS011;19080;51.750;5.888;2023-02-08T13:48:55;9.15;;;5.60;;
32319;SDS011;19080;51.750;5.888;2023-02-08T13:59:31;6.72;;;4.60;;
32319;SDS011;19080;51.750;5.888;2023-02-08T14:04:40;6.00;;;4.65;;
32319;SDS011;19080;51.750;5.888;2023-02-08T14:09:42;8.15;;;4.65;;
32319;SDS011;19080;51.750;5.888;2023-02-08T14:17:43;5.60;;;4.40;;
32319;SDS011;19080;51.750;5.888;2023-02-08T14:22:59;5.53;;;4.28;;
32319;SDS011;19080;51.750;5.888;2023-02-08T14:25:41;5.65;;;3.80;;
32319;SDS011;19080;51.750;5.888;2023-02-08T14:28:55;4.82;;;3.83;;
32319;SDS011;19080;51.750;5.888;2023-02-08T14:31:06;6.13;;;4.25;;
32319;SDS011;19080;51.750;5.888;2023-02-08T14:33:39;4.57;;;3.95;;
32319;SDS011;19080;51.750;5.888;2023-02-08T14:39:34;5.75;;;3.72;;
32319;SDS011;19080;51.750;5.888;2023-02-08T14:41:50;4.78;;;3.30;;
32319;SDS011;19080;51.750;5.888;2023-02-08T14:47:50;4.40;;;3.65;;
32319;SDS011;19080;51.750;5.888;2023-02-08T14:50:00;4.28;;;2.85;;
32319;SDS011;19080;51.750;5.888;2023-02-08T14:52:36;3.92;;;3.03;;
32319;SDS011;19080;51.750;5.888;2023-02-08T14:55:18;4.95;;;3.38;;
32319;SDS011;19080;51.750;5.888;2023-02-08T14:57:55;4.10;;;3.08;;
32319;SDS011;19080;51.750;5.888;2023-02-08T15:00:27;5.22;;;3.60;;
32319;SDS011;19080;51.750;5.888;2023-02-08T15:02:58;4.57;;;3.45;;
32319;SDS011;19080;51.750;5.888;2023-02-08T15:05:30;3.60;;;3.08;;
32319;SDS011;19080;51.750;5.888;2023-02-08T15:08:03;3.92;;;2.92;;
32319;SDS011;19080;51.750;5.888;2023-02-08T15:10:30;4.70;;;3.28;;
32319;SDS011;19080;51.750;5.888;2023-02-08T15:12:59;4.30;;;3.50;;
32319;SDS011;19080;51.750;5.888;2023-02-08T15:15:32;3.22;;;2.58;;
32319;SDS011;19080;51.750;5.888;2023-02-08T15:18:02;7.03;;;3.40;;
32319;SDS011;19080;51.750;5.888;2023-02-08T15:20:32;5.75;;;3.45;;
32319;SDS011;19080;51.750;5.888;2023-02-08T15:23:05;4.50;;;3.00;;
32319;SDS011;19080;51.750;5.888;2023-02-08T15:25:43;5.60;;;3.35;;
32319;SDS011;19080;51.750;5.888;2023-02-08T15:28:19;4.72;;;3.28;;
32319;SDS011;19080;51.750;5.888;2023-02-08T15:33:23;5.18;;;3.08;;
32319;SDS011;19080;51.750;5.888;2023-02-08T15:35:56;4.65;;;3.00;;
32319;SDS011;19080;51.750;5.888;2023-02-08T15:38:22;5.70;;;3.03;;
32319;SDS011;19080;51.750;5.888;2023-02-08T15:41:06;4.60;;;2.80;;
32319;SDS011;19080;51.750;5.888;2023-02-08T15:43:38;5.85;;;2.72;;
32319;SDS011;19080;51.750;5.888;2023-02-08T15:46:06;3.63;;;2.58;;
32319;SDS011;19080;51.750;5.888;2023-02-08T15:48:45;4.40;;;2.75;;
32319;SDS011;19080;51.750;5.888;2023-02-08T15:51:14;8.43;;;2.80;;
32319;SDS011;19080;51.750;5.888;2023-02-08T15:53:42;4.18;;;2.75;;
32319;SDS011;19080;51.750;5.888;2023-02-08T15:56:14;6.95;;;3.40;;
32319;SDS011;19080;51.750;5.888;2023-02-08T15:59:02;4.38;;;2.97;;
32319;SDS011;19080;51.750;5.888;2023-02-08T16:01:32;3.53;;;2.63;;
32319;SDS011;19080;51.750;5.888;2023-02-08T16:04:01;5.70;;;3.00;;
32319;SDS011;19080;51.750;5.888;2023-02-08T16:06:38;5.72;;;3.17;;
32319;SDS011;19080;51.750;5.888;2023-02-08T16:09:15;4.22;;;2.67;;
32319;SDS011;19080;51.750;5.888;2023-02-08T16:11:46;5.65;;;2.28;;
32319;SDS011;19080;51.750;5.888;2023-02-08T16:14:15;5.20;;;4.30;;
32319;SDS011;19080;51.750;5.888;2023-02-08T16:16:49;7.72;;;4.53;;
32319;SDS011;19080;51.750;5.888;2023-02-08T16:21:48;7.30;;;4.75;;
32319;SDS011;19080;51.750;5.888;2023-02-08T16:26:43;5.68;;;3.33;;
32319;SDS011;19080;51.750;5.888;2023-02-08T16:29:26;2.92;;;2.63;;
32319;SDS011;19080;51.750;5.888;2023-02-08T16:32:02;5.20;;;3.13;;
32319;SDS011;19080;51.750;5.888;2023-02-08T16:34:39;3.85;;;3.08;;
32319;SDS011;19080;51.750;5.888;2023-02-08T16:37:06;6.57;;;4.05;;
32319;SDS011;19080;51.750;5.888;2023-02-08T16:42:29;5.22;;;4.15;;
32319;SDS011;19080;51.750;5.888;2023-02-08T16:45:13;6.05;;;4.22;;
32319;SDS011;19080;51.750;5.888;2023-02-08T16:50:20;18.00;;;11.60;;
32319;SDS011;19080;51.750;5.888;2023-02-08T16:52:53;19.63;;;13.93;;
32319;SDS011;19080;51.750;5.888;2023-02-08T16:55:23;13.52;;;8.98;;
32319;SDS011;19080;51.750;5.888;2023-02-08T16:57:53;12.88;;;7.72;;
32319;SDS011;19080;51.750;5.888;2023-02-08T17:00:26;9.50;;;8.32;;
32319;SDS011;19080;51.750;5.888;2023-02-08T17:02:53;10.13;;;6.47;;
32319;SDS011;19080;51.750;5.888;2023-02-08T17:05:21;19.20;;;10.88;;
32319;SDS011;19080;51.750;5.888;2023-02-08T17:07:49;39.25;;;22.85;;
32319;SDS011;19080;51.750;5.888;2023-02-08T17:10:26;82.32;;;49.08;;
32319;SDS011;19080;51.750;5.888;2023-02-08T17:12:57;19.85;;;13.85;;
32319;SDS011;19080;51.750;5.888;2023-02-08T17:15:44;14.75;;;8.25;;
32319;SDS011;19080;51.750;5.888;2023-02-08T17:18:12;23.10;;;13.68;;
32319;SDS011;19080;51.750;5.888;2023-02-08T17:20:39;23.35;;;11.65;;
32319;SDS011;19080;51.750;5.888;2023-02-08T17:23:06;23.58;;;12.38;;
32319;SDS011;19080;51.750;5.888;2023-02-08T17:25:33;22.92;;;11.40;;
32319;SDS011;19080;51.750;5.888;2023-02-08T17:28:02;26.70;;;12.15;;
32319;SDS011;19080;51.750;5.888;2023-02-08T17:30:31;18.67;;;9.80;;
32319;SDS011;19080;51.750;5.888;2023-02-08T17:33:01;13.85;;;7.63;;
32319;SDS011;19080;51.750;5.888;2023-02-08T17:35:29;20.88;;;11.57;;
32319;SDS011;19080;51.750;5.888;2023-02-08T17:37:56;22.77;;;13.73;;
32319;SDS011;19080;51.750;5.888;2023-02-08T17:40:27;104.78;;;56.88;;